createdAt,value
2022-12-31T00:01:26.130Z,3.70
2022-12-31T00:03:55.271Z,3.90
2022-12-31T00:06:35.637Z,4.60
2022-12-31T00:09:06.833Z,4.00
2022-12-31T00:11:36.653Z,5.10
2022-12-31T00:14:05.508Z,3.40
2022-12-31T00:16:38.339Z,4.20
2022-12-31T00:19:10.226Z,16.60
2022-12-31T00:21:39.048Z,5.40
2022-12-31T00:24:08.197Z,4.90
2022-12-31T00:26:36.219Z,4.90
2022-12-31T00:29:05.390Z,4.50
2022-12-31T00:31:37.161Z,4.50
2022-12-31T00:34:06.514Z,3.70
2022-12-31T00:36:38.433Z,4.20
2022-12-31T00:39:08.520Z,3.60
2022-12-31T00:41:37.107Z,3.90
2022-12-31T00:44:05.677Z,4.80
2022-12-31T00:46:33.690Z,3.70
2022-12-31T00:49:01.809Z,4.00
2022-12-31T00:51:30.082Z,4.20
2022-12-31T00:53:58.311Z,3.90
2022-12-31T00:56:30.351Z,4.00
2022-12-31T00:59:00.227Z,4.40
2022-12-31T01:01:32.977Z,12.20
2022-12-31T01:04:07.079Z,3.60
2022-12-31T01:06:35.469Z,3.60
2022-12-31T01:09:05.167Z,4.20
2022-12-31T01:11:33.426Z,3.70
2022-12-31T01:14:14.889Z,3.70
2022-12-31T01:16:52.543Z,4.80
2022-12-31T01:19:28.920Z,4.00
2022-12-31T01:21:57.332Z,4.00
2022-12-31T01:24:25.430Z,4.10
2022-12-31T01:26:57.647Z,4.30
2022-12-31T01:29:27.589Z,4.20
2022-12-31T01:31:55.539Z,4.30
2022-12-31T01:34:23.545Z,13.20
2022-12-31T01:36:51.603Z,4.70
2022-12-31T01:39:19.825Z,4.30
2022-12-31T01:41:47.978Z,3.40
2022-12-31T01:44:24.872Z,3.90
2022-12-31T01:46:58.266Z,4.10
2022-12-31T01:49:47.719Z,4.10
2022-12-31T01:52:32.380Z,3.80
2022-12-31T01:55:08.663Z,4.20
2022-12-31T01:57:38.140Z,4.60
2022-12-31T02:00:08.050Z,4.00
2022-12-31T02:02:36.432Z,3.40
2022-12-31T02:05:18.441Z,3.00
2022-12-31T02:07:48.092Z,3.50
2022-12-31T02:10:16.491Z,3.80
2022-12-31T02:12:45.291Z,3.50
2022-12-31T02:15:13.402Z,3.50
2022-12-31T02:18:17.353Z,3.70
2022-12-31T02:21:36.352Z,3.70
2022-12-31T02:24:39.044Z,3.40
2022-12-31T02:27:26.094Z,3.80
2022-12-31T02:29:59.644Z,3.50
2022-12-31T02:32:38.107Z,3.70
2022-12-31T02:35:20.245Z,4.00
2022-12-31T02:37:53.075Z,3.50
2022-12-31T02:42:55.300Z,3.40
2022-12-31T02:45:31.196Z,3.70
2022-12-31T02:48:36.920Z,2.70
2022-12-31T02:51:41.929Z,3.30
2022-12-31T02:54:28.181Z,3.40
2022-12-31T02:58:02.525Z,3.20
2022-12-31T03:00:54.753Z,3.60
2022-12-31T03:03:24.305Z,3.40
2022-12-31T03:05:52.729Z,3.70
2022-12-31T03:08:26.398Z,3.50
2022-12-31T03:10:56.786Z,3.80
2022-12-31T03:13:25.013Z,3.90
2022-12-31T03:15:52.905Z,3.30
2022-12-31T03:18:43.694Z,3.60
2022-12-31T03:21:32.059Z,3.80
2022-12-31T03:24:18.862Z,3.60
2022-12-31T03:26:46.924Z,3.10
2022-12-31T03:29:15.418Z,2.90
2022-12-31T03:31:43.294Z,3.00
2022-12-31T03:34:11.197Z,2.80
2022-12-31T03:36:39.591Z,3.50
2022-12-31T03:39:07.421Z,3.70
2022-12-31T03:41:35.297Z,3.30
2022-12-31T03:44:03.166Z,3.90
2022-12-31T03:46:31.075Z,3.50
2022-12-31T03:48:59.057Z,3.40
2022-12-31T03:51:26.938Z,3.10
2022-12-31T03:53:54.787Z,3.80
2022-12-31T03:56:22.675Z,4.50
2022-12-31T03:58:50.531Z,3.10
2022-12-31T04:01:19.552Z,3.30
2022-12-31T04:03:47.604Z,3.50
2022-12-31T04:06:15.913Z,3.00
2022-12-31T04:08:43.918Z,3.00
2022-12-31T04:11:14.728Z,3.20
2022-12-31T04:13:46.868Z,3.70
2022-12-31T04:16:14.842Z,2.80
2022-12-31T04:18:42.746Z,3.10
2022-12-31T04:21:10.624Z,3.50
2022-12-31T04:23:38.578Z,3.30
2022-12-31T04:26:06.493Z,2.90
2022-12-31T04:28:34.441Z,2.90
2022-12-31T04:31:04.168Z,3.10
2022-12-31T04:33:32.068Z,3.30
2022-12-31T04:36:07.888Z,3.80
2022-12-31T04:38:35.847Z,3.30
2022-12-31T04:41:20.867Z,3.50
2022-12-31T04:43:52.261Z,3.50
2022-12-31T04:46:29.411Z,3.60
2022-12-31T04:48:57.793Z,3.80
2022-12-31T04:51:29.635Z,3.80
2022-12-31T04:53:58.798Z,3.50
2022-12-31T04:56:28.250Z,3.50
2022-12-31T04:58:56.786Z,3.90
2022-12-31T05:01:25.345Z,3.00
2022-12-31T05:03:53.502Z,4.10
2022-12-31T05:06:23.597Z,3.70
2022-12-31T05:08:51.533Z,3.40
2022-12-31T05:11:19.459Z,3.50
2022-12-31T05:13:47.375Z,3.50
2022-12-31T05:16:15.432Z,3.80
2022-12-31T05:18:43.341Z,4.40
2022-12-31T05:21:18.062Z,3.20
2022-12-31T05:23:46.073Z,3.80
2022-12-31T05:26:14.715Z,3.50
2022-12-31T05:28:42.791Z,3.80
2022-12-31T05:31:10.792Z,3.30
2022-12-31T05:33:38.748Z,3.40
2022-12-31T05:36:07.260Z,3.50
2022-12-31T05:38:35.217Z,3.70
2022-12-31T05:41:07.645Z,3.70
2022-12-31T05:43:35.596Z,3.30
2022-12-31T05:46:04.748Z,3.30
2022-12-31T05:48:33.271Z,3.30
2022-12-31T05:51:01.143Z,3.10
2022-12-31T05:53:29.503Z,3.30
2022-12-31T05:55:57.385Z,3.40
2022-12-31T05:58:25.259Z,3.10
2022-12-31T06:00:53.240Z,3.50
2022-12-31T06:03:21.322Z,3.40
2022-12-31T06:05:49.570Z,3.60
2022-12-31T06:08:17.531Z,3.10
2022-12-31T06:10:45.576Z,3.20
2022-12-31T06:13:13.408Z,3.10
2022-12-31T06:15:41.571Z,3.30
2022-12-31T06:18:09.482Z,2.70
2022-12-31T06:20:38.223Z,3.10
2022-12-31T06:23:06.319Z,2.50
2022-12-31T06:25:39.623Z,3.00
2022-12-31T06:28:07.561Z,2.80
2022-12-31T06:30:35.532Z,3.60
2022-12-31T06:33:03.593Z,2.90
2022-12-31T06:35:31.440Z,3.40
2022-12-31T06:37:59.329Z,2.80
2022-12-31T06:40:27.395Z,3.50
2022-12-31T06:42:59.830Z,3.70
2022-12-31T06:45:28.294Z,3.40
2022-12-31T06:47:56.219Z,3.80
2022-12-31T06:50:24.060Z,3.20
2022-12-31T06:52:51.927Z,2.70
2022-12-31T06:55:20.474Z,3.50
2022-12-31T06:57:48.984Z,8.60
2022-12-31T07:00:17.985Z,16.30
2022-12-31T07:02:58.217Z,3.00
2022-12-31T07:05:39.186Z,3.20
2022-12-31T07:08:57.300Z,3.50
2022-12-31T07:11:35.733Z,3.20
2022-12-31T07:14:25.378Z,3.40
2022-12-31T07:17:47.689Z,2.90
2022-12-31T07:20:18.433Z,2.60
2022-12-31T07:22:46.782Z,2.70
2022-12-31T07:25:17.471Z,2.80
2022-12-31T07:28:19.552Z,3.00
2022-12-31T07:31:11.825Z,2.40
2022-12-31T07:34:09.553Z,2.80
2022-12-31T07:36:55.440Z,3.00
2022-12-31T07:39:38.538Z,3.30
2022-12-31T07:47:41.849Z,3.10
2022-12-31T07:50:19.534Z,3.00
2022-12-31T07:52:47.945Z,3.10
2022-12-31T07:55:16.527Z,3.00
2022-12-31T07:58:08.030Z,2.60
2022-12-31T08:00:36.066Z,3.20
2022-12-31T08:03:42.991Z,2.80
2022-12-31T08:06:39.721Z,3.10
2022-12-31T08:09:33.015Z,2.90
2022-12-31T08:14:30.328Z,3.50
2022-12-31T08:16:58.671Z,3.20
2022-12-31T08:19:32.512Z,3.80
2022-12-31T08:22:18.035Z,3.90
2022-12-31T08:25:18.723Z,3.80
2022-12-31T08:28:07.780Z,3.80
2022-12-31T08:30:56.047Z,4.40
2022-12-31T08:33:52.314Z,3.70
2022-12-31T08:36:40.745Z,3.80
2022-12-31T08:39:57.304Z,4.20
2022-12-31T08:42:32.651Z,4.70
2022-12-31T08:45:24.188Z,13.60
2022-12-31T08:48:19.128Z,12.30
2022-12-31T08:50:47.860Z,3.60
2022-12-31T08:53:16.176Z,3.70
2022-12-31T08:55:46.451Z,3.80
2022-12-31T08:58:40.160Z,4.00
2022-12-31T09:01:09.315Z,4.40
2022-12-31T09:03:58.434Z,4.20
2022-12-31T09:06:38.431Z,3.80
2022-12-31T09:09:34.474Z,3.50
2022-12-31T09:12:28.653Z,4.40
2022-12-31T09:15:05.797Z,3.90
2022-12-31T09:17:43.886Z,4.50
2022-12-31T09:20:44.375Z,4.60
2022-12-31T09:23:13.593Z,4.40
2022-12-31T09:26:32.574Z,3.60
2022-12-31T09:29:28.507Z,4.30
2022-12-31T09:32:18.713Z,3.90
2022-12-31T09:35:24.828Z,4.40
2022-12-31T09:38:30.743Z,12.50
2022-12-31T09:41:15.609Z,3.30
2022-12-31T09:44:10.078Z,3.00
2022-12-31T09:47:16.467Z,2.90
2022-12-31T09:50:36.249Z,2.60
2022-12-31T09:53:16.364Z,2.60
2022-12-31T09:55:59.569Z,2.90
2022-12-31T09:59:06.304Z,2.60
2022-12-31T10:01:48.473Z,3.80
2022-12-31T10:05:03.819Z,5.00
2022-12-31T10:08:21.945Z,3.00
2022-12-31T10:10:57.433Z,2.80
2022-12-31T10:14:07.022Z,2.80
2022-12-31T10:17:05.190Z,4.20
2022-12-31T10:20:16.619Z,3.20
2022-12-31T10:23:30.412Z,2.20
2022-12-31T10:29:26.629Z,2.30
2022-12-31T10:32:15.542Z,1.80
2022-12-31T10:35:02.175Z,2.70
2022-12-31T10:38:20.460Z,6.60
2022-12-31T10:41:07.133Z,6.50
2022-12-31T10:44:12.136Z,2.70
2022-12-31T10:47:28.859Z,2.50
2022-12-31T10:50:26.271Z,2.30
2022-12-31T10:53:31.963Z,1.90
2022-12-31T10:56:09.471Z,1.60
2022-12-31T10:59:08.733Z,2.20
2022-12-31T11:02:19.059Z,2.20
2022-12-31T11:05:06.484Z,2.80
2022-12-31T11:08:24.640Z,2.00
2022-12-31T11:11:27.015Z,2.20
2022-12-31T11:14:23.234Z,2.00
2022-12-31T11:17:42.068Z,3.90
2022-12-31T11:20:33.843Z,4.50
2022-12-31T11:23:35.320Z,1.80
2022-12-31T11:26:51.156Z,5.00
2022-12-31T11:29:57.374Z,2.00
2022-12-31T11:33:14.054Z,2.60
2022-12-31T11:36:29.027Z,2.50
2022-12-31T11:39:47.800Z,1.90
2022-12-31T11:42:40.421Z,2.20
2022-12-31T11:45:32.869Z,2.00
2022-12-31T11:48:34.742Z,2.00
2022-12-31T11:51:23.946Z,2.70
2022-12-31T11:54:26.053Z,2.10
2022-12-31T11:57:09.509Z,2.00
2022-12-31T11:59:37.860Z,8.60
2022-12-31T12:02:55.290Z,9.50
2022-12-31T12:05:25.719Z,2.10
2022-12-31T12:07:54.355Z,2.70
2022-12-31T12:10:35.536Z,2.10
2022-12-31T12:13:18.776Z,2.40
2022-12-31T12:15:57.358Z,5.30
2022-12-31T12:18:45.920Z,10.10
2022-12-31T12:21:17.161Z,2.90
2022-12-31T12:23:57.381Z,2.80
2022-12-31T12:26:45.800Z,2.10
2022-12-31T12:29:21.023Z,2.30
2022-12-31T12:32:05.163Z,2.40
2022-12-31T12:34:37.674Z,2.80
2022-12-31T12:37:27.022Z,2.10
2022-12-31T12:40:02.413Z,1.50
2022-12-31T12:42:30.719Z,1.70
2022-12-31T12:45:19.901Z,1.90
2022-12-31T12:47:56.055Z,1.50
2022-12-31T12:50:43.293Z,1.70
2022-12-31T12:53:26.332Z,1.60
2022-12-31T12:59:50.408Z,1.90
2022-12-31T13:03:09.317Z,2.90
2022-12-31T13:06:26.320Z,3.70
2022-12-31T13:09:15.720Z,1.70
2022-12-31T13:12:20.401Z,1.30
2022-12-31T13:15:13.123Z,1.50
2022-12-31T13:18:23.132Z,1.60
2022-12-31T13:21:03.295Z,1.80
2022-12-31T13:23:50.297Z,1.30
2022-12-31T13:26:35.774Z,1.70
2022-12-31T13:29:05.738Z,1.80
2022-12-31T13:31:40.037Z,1.30
2022-12-31T13:36:51.015Z,1.20
2022-12-31T13:39:37.549Z,1.70
2022-12-31T13:42:24.327Z,2.00
2022-12-31T13:45:12.870Z,1.70
2022-12-31T13:47:49.022Z,1.90
2022-12-31T13:51:00.450Z,1.80
2022-12-31T13:53:38.366Z,1.80
2022-12-31T13:56:33.700Z,1.50
2022-12-31T13:59:20.628Z,1.70
2022-12-31T14:02:00.816Z,2.10
2022-12-31T14:04:42.525Z,1.70
2022-12-31T14:07:20.651Z,1.80
2022-12-31T14:09:48.984Z,2.10
2022-12-31T14:12:56.135Z,1.40
2022-12-31T14:15:37.927Z,1.70
2022-12-31T14:18:44.770Z,2.00
2022-12-31T14:21:28.786Z,2.30
2022-12-31T14:24:21.957Z,1.80
2022-12-31T14:29:43.429Z,1.60
2022-12-31T14:32:32.783Z,3.00
2022-12-31T14:35:34.649Z,6.90
2022-12-31T14:38:20.090Z,1.70
2022-12-31T14:41:18.990Z,2.50
2022-12-31T14:44:14.925Z,1.80
2022-12-31T14:47:02.173Z,2.30
2022-12-31T14:50:03.986Z,2.70
2022-12-31T14:52:49.812Z,2.40
2022-12-31T14:55:18.225Z,1.40
2022-12-31T14:58:25.903Z,1.90
2022-12-31T15:00:40.818Z,1.50
2022-12-31T15:03:14.998Z,1.70
2022-12-31T15:06:00.279Z,1.60
2022-12-31T15:09:16.640Z,2.40
2022-12-31T15:12:09.668Z,1.70
2022-12-31T15:14:54.794Z,2.10
2022-12-31T15:17:54.051Z,1.40
2022-12-31T15:20:49.241Z,1.70
2022-12-31T15:23:35.032Z,3.40
2022-12-31T15:26:04.405Z,3.20
2022-12-31T15:28:38.581Z,2.60
2022-12-31T15:31:20.460Z,4.50
2022-12-31T15:34:25.550Z,2.40
2022-12-31T15:36:58.148Z,2.20
2022-12-31T15:39:32.355Z,2.50
2022-12-31T15:42:36.804Z,2.30
2022-12-31T15:44:56.373Z,2.80
2022-12-31T15:47:39.676Z,2.40
2022-12-31T15:50:20.653Z,2.30
2022-12-31T15:52:59.874Z,2.20
2022-12-31T15:55:50.662Z,2.20
2022-12-31T15:58:26.367Z,3.20
2022-12-31T16:01:19.072Z,5.80
2022-12-31T16:03:55.524Z,2.00
2022-12-31T16:06:28.337Z,2.20
2022-12-31T16:11:27.829Z,2.30
2022-12-31T16:13:58.531Z,2.40
2022-12-31T16:16:31.504Z,1.90
2022-12-31T16:19:01.036Z,2.60
2022-12-31T16:21:37.426Z,2.20
2022-12-31T16:24:33.162Z,2.70
2022-12-31T16:27:08.186Z,2.90
2022-12-31T16:29:41.297Z,2.90
2022-12-31T16:32:19.086Z,2.30
2022-12-31T16:34:46.985Z,4.30
2022-12-31T16:37:21.559Z,2.00
2022-12-31T16:39:55.830Z,2.00
2022-12-31T16:42:29.314Z,2.20
2022-12-31T16:44:57.587Z,2.30
2022-12-31T16:47:38.213Z,2.40
2022-12-31T16:50:17.736Z,2.60
2022-12-31T16:52:50.355Z,2.40
2022-12-31T16:55:24.367Z,2.00
2022-12-31T16:58:01.860Z,2.20
2022-12-31T17:00:29.899Z,3.30
2022-12-31T17:03:11.606Z,2.50
2022-12-31T17:06:09.291Z,2.70
2022-12-31T17:08:50.191Z,3.10
2022-12-31T17:11:30.363Z,2.90
2022-12-31T17:14:07.614Z,2.30
2022-12-31T17:17:03.635Z,2.40
2022-12-31T17:19:45.832Z,3.40
2022-12-31T17:22:35.859Z,3.30
2022-12-31T17:25:06.500Z,2.90
2022-12-31T17:27:36.651Z,3.00
2022-12-31T17:30:43.599Z,2.80
2022-12-31T17:33:11.531Z,2.70
2022-12-31T17:35:44.875Z,3.30
2022-12-31T17:38:21.640Z,2.90
2022-12-31T17:41:04.316Z,2.60
2022-12-31T17:43:37.895Z,3.00
2022-12-31T17:46:16.019Z,3.00
2022-12-31T17:48:49.700Z,2.90
2022-12-31T17:51:18.856Z,2.90
2022-12-31T17:53:52.711Z,2.60
2022-12-31T17:56:21.424Z,2.90
2022-12-31T17:58:54.113Z,2.90
2022-12-31T18:01:23.402Z,3.00
2022-12-31T18:03:51.654Z,2.80
2022-12-31T18:06:19.956Z,2.80
2022-12-31T18:08:48.062Z,3.10
2022-12-31T18:11:23.867Z,8.30
2022-12-31T18:13:53.251Z,3.90
2022-12-31T18:16:21.187Z,4.00
2022-12-31T18:18:49.329Z,4.70
2022-12-31T18:21:28.127Z,3.50
2022-12-31T18:26:25.411Z,3.60
2022-12-31T18:28:53.830Z,5.20
2022-12-31T18:31:26.674Z,4.70
2022-12-31T18:33:57.736Z,3.10
2022-12-31T18:36:27.989Z,5.30
2022-12-31T18:38:56.029Z,3.60
2022-12-31T18:41:31.173Z,3.60
2022-12-31T18:43:59.028Z,3.00
2022-12-31T18:46:27.610Z,3.70
2022-12-31T18:48:55.581Z,3.40
2022-12-31T18:51:31.416Z,2.90
2022-12-31T18:54:02.003Z,2.70
2022-12-31T18:56:30.295Z,2.70
2022-12-31T18:58:59.678Z,2.30
2022-12-31T19:01:40.139Z,2.70
2022-12-31T19:04:26.993Z,2.30
2022-12-31T19:06:56.592Z,2.40
2022-12-31T19:09:44.513Z,2.40
2022-12-31T19:12:14.212Z,2.20
2022-12-31T19:14:42.474Z,3.10
2022-12-31T19:19:37.503Z,2.40
2022-12-31T19:22:14.914Z,6.70
2022-12-31T19:24:42.927Z,2.80
2022-12-31T19:27:11.121Z,3.10
2022-12-31T19:29:39.634Z,2.30
2022-12-31T19:32:07.659Z,3.40
2022-12-31T19:34:35.604Z,3.60
2022-12-31T19:37:03.546Z,2.60
2022-12-31T19:39:31.437Z,2.40
2022-12-31T19:41:59.874Z,2.80
2022-12-31T19:44:27.814Z,2.50
2022-12-31T19:46:55.730Z,2.70
2022-12-31T19:49:24.169Z,2.40
2022-12-31T19:51:52.050Z,2.30
2022-12-31T19:54:20.030Z,2.30
2022-12-31T19:56:47.903Z,2.40
2022-12-31T19:59:15.834Z,2.20
2022-12-31T20:01:44.015Z,2.60
2022-12-31T20:04:12.034Z,2.40
2022-12-31T20:06:39.967Z,3.10
2022-12-31T20:09:07.953Z,2.80
2022-12-31T20:11:36.047Z,2.80
2022-12-31T20:14:04.177Z,2.60
2022-12-31T20:16:33.742Z,4.70
2022-12-31T20:19:01.907Z,2.10
2022-12-31T20:21:29.987Z,2.30
2022-12-31T20:23:57.998Z,2.20
2022-12-31T20:26:26.524Z,2.00
2022-12-31T20:28:54.477Z,2.20
2022-12-31T20:31:28.007Z,2.40
2022-12-31T20:33:56.116Z,2.70
2022-12-31T20:36:24.548Z,2.20
2022-12-31T20:38:52.463Z,2.10
2022-12-31T20:41:22.587Z,2.50
2022-12-31T20:43:51.501Z,2.10
2022-12-31T20:46:25.434Z,2.40
2022-12-31T20:48:56.310Z,2.30
2022-12-31T20:51:25.795Z,2.60
2022-12-31T20:54:00.297Z,2.60
2022-12-31T20:56:31.748Z,4.40
2022-12-31T20:59:00.952Z,2.60
2022-12-31T21:01:41.690Z,2.40
2022-12-31T21:04:17.552Z,2.30
2022-12-31T21:06:45.624Z,2.10
2022-12-31T21:09:14.237Z,2.70
2022-12-31T21:12:01.023Z,2.20
2022-12-31T21:14:28.948Z,2.10
2022-12-31T21:16:56.868Z,2.10
2022-12-31T21:19:24.856Z,2.20
2022-12-31T21:21:52.824Z,3.60
2022-12-31T21:24:24.060Z,2.40
2022-12-31T21:26:55.882Z,2.40
2022-12-31T21:29:23.883Z,2.30
2022-12-31T21:31:51.758Z,2.50
2022-12-31T21:34:21.069Z,2.30
2022-12-31T21:36:49.015Z,2.40
2022-12-31T21:39:16.947Z,2.50
2022-12-31T21:41:50.921Z,2.60
2022-12-31T21:44:21.700Z,2.80
2022-12-31T21:47:35.395Z,1.90
2022-12-31T21:50:04.695Z,2.40
2022-12-31T21:52:34.965Z,2.70
2022-12-31T21:55:24.585Z,2.50
2022-12-31T21:58:24.864Z,2.40
2022-12-31T22:00:59.820Z,2.40
2022-12-31T22:03:28.532Z,2.20
2022-12-31T22:06:22.785Z,2.50
2022-12-31T22:08:54.809Z,2.70
2022-12-31T22:11:26.486Z,2.90
2022-12-31T22:13:55.679Z,3.20
2022-12-31T22:16:23.860Z,2.80
2022-12-31T22:18:56.000Z,3.20
2022-12-31T22:21:25.749Z,3.10
2022-12-31T22:23:56.397Z,5.20
2022-12-31T22:26:28.377Z,4.90
2022-12-31T22:28:59.966Z,3.70
2022-12-31T22:31:32.283Z,2.80
2022-12-31T22:34:00.695Z,2.60
2022-12-31T22:36:28.601Z,3.30
2022-12-31T22:38:58.797Z,3.20
2022-12-31T22:41:27.938Z,2.50
2022-12-31T22:44:03.687Z,3.40
2022-12-31T22:46:34.276Z,2.90
2022-12-31T22:49:04.876Z,3.30
2022-12-31T22:51:55.197Z,3.20
2022-12-31T22:54:21.392Z,3.00
2022-12-31T22:56:49.580Z,3.40
2022-12-31T22:59:17.608Z,5.40
2022-12-31T23:01:45.733Z,7.60
2022-12-31T23:04:13.936Z,28.10
2022-12-31T23:06:44.934Z,16.90
2022-12-31T23:09:34.136Z,18.10
2022-12-31T23:12:04.630Z,26.30
2022-12-31T23:14:51.826Z,25.00
2022-12-31T23:17:45.172Z,39.90
2022-12-31T23:20:37.174Z,35.00
2022-12-31T23:23:10.277Z,28.30
2022-12-31T23:25:50.521Z,29.00
2022-12-31T23:28:24.515Z,23.70
2022-12-31T23:30:53.065Z,21.70
2022-12-31T23:33:24.816Z,18.60
2022-12-31T23:36:06.880Z,15.20
2022-12-31T23:38:34.770Z,14.30
2022-12-31T23:41:16.219Z,12.60
2022-12-31T23:43:44.531Z,9.20
2022-12-31T23:46:13.661Z,8.40
2022-12-31T23:48:42.179Z,6.50
2022-12-31T23:51:10.058Z,6.40
2022-12-31T23:53:38.563Z,4.70
2022-12-31T23:56:22.770Z,4.00
2022-12-31T23:58:56.142Z,4.10
